Time;durP1;ratioP1;P1;durP2;ratioP2;P2;SDS_P1;SDS_P2;PMS_P1;PMS_P2;Temp;Humidity;BMP_temperature;BMP_pressure;BME280_temperature;BME280_humidity;BME280_pressure;Samples;Min_cycle;Max_cycle;Signal;HPM_P1;HPM_P2
2021/04/23 00:00:16;;;;;;;16.80;13.48;;;;;;;9.25;75.95;101328.27;1749931;80;22263;-76
2021/04/23 00:02:46;;;;;;;18.37;14.58;;;;;;;9.23;76.20;101329.66;1749980;80;21152;-75
2021/04/23 00:05:15;;;;;;;17.23;13.40;;;;;;;9.20;76.28;101319.77;1749877;80;21034;-74
2021/04/23 00:07:47;;;;;;;17.42;14.30;;;;;;;9.16;76.50;101322.13;1749795;80;21014;-76
2021/04/23 00:10:16;;;;;;;15.83;13.28;;;;;;;9.11;76.73;101324.50;1749897;82;21034;-77
2021/04/23 00:12:44;;;;;;;17.27;14.45;;;;;;;9.07;76.94;101319.44;1749883;82;21209;-77
2021/04/23 00:15:14;;;;;;;16.07;13.68;;;;;;;9.03;77.18;101320.52;1749941;82;20951;-77
2021/04/23 00:17:43;;;;;;;14.80;12.20;;;;;;;8.99;77.53;101318.93;1750440;82;21334;-77
2021/04/23 00:20:20;;;;;;;15.50;12.98;;;;;;;8.96;77.74;101308.15;1750121;81;21352;-75
2021/04/23 00:22:49;;;;;;;15.08;12.70;;;;;;;8.95;77.88;101310.35;1749729;82;21353;-74
2021/04/23 00:25:26;;;;;;;16.00;12.98;;;;;;;8.95;78.04;101306.89;1753450;82;21872;-76
2021/04/23 00:28:01;;;;;;;15.00;12.63;;;;;;;8.95;78.12;101306.89;1752904;82;21010;-73
2021/04/23 00:30:33;;;;;;;17.37;13.88;;;;;;;8.95;78.13;101301.66;1751123;82;20955;-75
2021/04/23 00:33:01;;;;;;;16.85;14.53;;;;;;;8.94;78.14;101307.36;1750558;82;21465;-76
2021/04/23 00:35:33;;;;;;;15.45;13.80;;;;;;;8.92;78.30;101302.18;1750024;82;20923;-76
2021/04/23 00:38:05;;;;;;;18.32;14.05;;;;;;;8.89;78.40;101299.70;1749892;82;21198;-75
2021/04/23 00:40:41;;;;;;;16.27;14.07;;;;;;;8.84;78.59;101302.95;1749822;82;21639;-74
2021/04/23 00:43:09;;;;;;;16.95;13.70;;;;;;;8.80;78.69;101300.06;1747657;82;21059;-74
2021/04/23 00:45:39;;;;;;;19.25;15.23;;;;;;;8.76;78.95;101308.10;1735805;82;21373;-73
2021/04/23 00:48:07;;;;;;;15.95;14.25;;;;;;;8.71;79.18;101305.68;1735862;82;21114;-73
2021/04/23 00:50:52;;;;;;;18.05;15.08;;;;;;;8.69;79.27;101300.53;1735894;82;21379;-75
2021/04/23 00:53:27;;;;;;;17.82;13.62;;;;;;;8.68;79.44;101295.36;1735864;81;21500;-74
2021/04/23 00:55:57;;;;;;;15.90;13.30;;;;;;;8.65;79.56;101302.03;1736083;82;21027;-75
2021/04/23 00:58:27;;;;;;;16.97;14.45;;;;;;;8.63;79.66;101302.09;1735795;82;20995;-75
2021/04/23 01:01:02;;;;;;;17.45;15.55;;;;;;;8.62;79.67;101301.67;1735892;82;20948;-74
2021/04/23 01:03:32;;;;;;;16.42;14.73;;;;;;;8.61;79.71;101304.37;1735777;82;21420;-73
2021/04/23 01:06:00;;;;;;;16.37;14.68;;;;;;;8.59;79.57;101299.20;1735881;82;21038;-74
2021/04/23 01:08:28;;;;;;;16.05;14.30;;;;;;;8.57;79.61;101294.48;1735815;82;21504;-76
2021/04/23 01:11:00;;;;;;;18.67;14.65;;;;;;;8.54;79.72;101297.23;1735750;81;20991;-76
2021/04/23 01:13:34;;;;;;;16.27;14.47;;;;;;;8.52;79.62;101287.30;1735951;82;20943;-78
2021/04/23 01:16:06;;;;;;;22.52;15.43;;;;;;;8.50;79.60;101289.12;1735957;82;21390;-79
2021/04/23 01:18:34;;;;;;;16.50;14.30;;;;;;;8.47;79.67;101285.30;1736172;81;21031;-76
2021/04/23 01:21:14;;;;;;;19.40;16.25;;;;;;;8.45;79.68;101279.31;1715533;82;20964;-77
2021/04/23 01:23:44;;;;;;;19.70;17.32;;;;;;;8.42;79.91;101272.89;1736046;81;21058;-76
2021/04/23 01:26:14;;;;;;;17.80;14.05;;;;;;;8.41;79.93;101276.42;1736163;82;21449;-77
2021/04/23 01:28:45;;;;;;;18.70;14.80;;;;;;;8.39;79.87;101273.84;1735903;81;21360;-76
2021/04/23 01:31:15;;;;;;;21.87;16.48;;;;;;;8.38;79.85;101273.45;1735751;82;20952;-74
2021/04/23 01:33:46;;;;;;;19.90;15.80;;;;;;;8.36;79.76;101271.36;1735797;82;21057;-77
2021/04/23 01:36:14;;;;;;;17.75;15.08;;;;;;;8.35;79.79;101275.33;1735734;82;20992;-75
2021/04/23 01:38:46;;;;;;;19.00;15.88;;;;;;;8.34;79.81;101281.45;1735794;81;20940;-74
2021/04/23 01:41:16;;;;;;;16.65;14.58;;;;;;;8.33;79.85;101284.53;1735818;81;22363;-76
2021/04/23 01:43:44;;;;;;;18.37;14.43;;;;;;;8.33;79.76;101276.69;1735538;81;21074;-75
2021/04/23 01:46:12;;;;;;;18.35;16.05;;;;;;;8.35;79.75;101281.86;1735757;81;20943;-75
2021/04/23 01:48:40;;;;;;;21.85;15.35;;;;;;;8.33;79.71;101279.77;1735735;82;20959;-77
2021/04/23 01:51:12;;;;;;;22.67;16.48;;;;;;;8.32;79.65;101274.16;1735748;82;20904;-77
2021/04/23 01:53:40;;;;;;;20.48;17.42;;;;;;;8.29;79.59;101266.83;1735848;82;22360;-75
2021/04/23 01:56:08;;;;;;;19.98;15.25;;;;;;;8.26;79.60;101266.94;1735811;81;21350;-75
2021/04/23 01:58:36;;;;;;;20.72;15.60;;;;;;;8.23;79.62;101263.16;1735758;82;21066;-77
2021/04/23 02:01:06;;;;;;;21.42;15.48;;;;;;;8.22;79.62;101264.05;1735736;82;20964;-75
2021/04/23 02:03:36;;;;;;;19.17;15.40;;;;;;;8.20;79.77;101257.19;1735804;82;21019;-77
2021/04/23 02:06:04;;;;;;;21.33;15.85;;;;;;;8.20;79.78;101254.57;1735778;82;21464;-74
2021/04/23 02:08:33;;;;;;;19.80;17.12;;;;;;;8.20;79.76;101259.80;1735692;82;20967;-74
2021/04/23 02:11:09;;;;;;;20.85;17.10;;;;;;;8.19;79.96;101263.34;1735704;81;20936;-76
2021/04/23 02:13:39;;;;;;;19.75;16.57;;;;;;;8.17;79.92;101258.16;1735722;82;20955;-76
2021/04/23 02:16:08;;;;;;;20.60;16.02;;;;;;;8.16;79.89;101260.83;1735839;81;20996;-76
2021/04/23 02:18:38;;;;;;;21.62;16.93;;;;;;;8.14;79.87;101262.22;1735799;81;21511;-77
2021/04/23 02:21:07;;;;;;;20.52;16.48;;;;;;;8.10;79.86;101259.32;1735703;82;21460;-76
2021/04/23 02:23:35;;;;;;;20.80;15.70;;;;;;;8.08;79.87;101263.75;1735820;82;21378;-75
2021/04/23 02:26:03;;;;;;;18.07;14.40;;;;;;;8.06;79.91;101265.11;1735692;81;21429;-76
2021/04/23 02:28:31;;;;;;;17.37;14.43;;;;;;;8.04;79.92;101266.93;1735867;81;21362;-75
2021/04/23 02:31:13;;;;;;;19.07;14.23;;;;;;;8.02;80.03;101265.30;1735701;82;21190;-76
2021/04/23 02:33:42;;;;;;;21.20;16.20;;;;;;;8.02;80.00;101259.61;1735811;82;21516;-75
2021/04/23 02:36:10;;;;;;;17.40;15.15;;;;;;;8.02;80.00;101260.06;1735784;81;21366;-75
2021/04/23 02:38:38;;;;;;;23.10;17.73;;;;;;;8.01;80.00;101260.99;1735830;82;21117;-76
2021/04/23 02:41:07;;;;;;;22.37;16.97;;;;;;;7.99;79.94;101267.58;1735738;81;21109;-75
2021/04/23 02:43:39;;;;;;;20.08;16.62;;;;;;;7.98;79.92;101262.40;1735788;81;21445;-76
2021/04/23 02:46:08;;;;;;;20.45;16.00;;;;;;;7.96;79.93;101262.48;1743928;81;20975;-75
2021/04/23 02:48:38;;;;;;;18.67;15.75;;;;;;;7.94;80.01;101260.38;1744012;82;21007;-77
2021/04/23 02:51:10;;;;;;;20.43;16.27;;;;;;;7.92;80.12;101254.83;1743877;82;20963;-77
2021/04/23 02:53:39;;;;;;;22.32;16.05;;;;;;;7.89;80.20;101262.30;1743991;81;20903;-77
2021/04/23 02:56:08;;;;;;;18.17;15.30;;;;;;;7.89;80.29;101262.30;1744020;82;22174;-76
2021/04/23 02:58:37;;;;;;;18.65;15.70;;;;;;;7.89;80.32;101262.30;1744018;82;21465;-79
2021/04/23 03:01:09;;;;;;;19.07;15.68;;;;;;;7.92;80.33;101257.44;1744086;81;21441;-78
2021/04/23 03:03:38;;;;;;;17.20;14.60;;;;;;;7.94;80.27;101262.99;1743968;81;20995;-77
2021/04/23 03:06:06;;;;;;;16.75;14.58;;;;;;;7.96;80.19;101261.17;1744334;81;20955;-76
2021/04/23 03:08:34;;;;;;;16.73;14.75;;;;;;;7.99;80.12;101262.34;1744148;82;21804;-78
2021/04/23 03:11:11;;;;;;;18.50;16.52;;;;;;;8.00;80.07;101250.13;1744095;82;21054;-77
2021/04/23 03:13:40;;;;;;;21.17;17.23;;;;;;;8.00;80.04;101248.36;1744598;82;21365;-76
2021/04/23 03:16:09;;;;;;;21.77;17.35;;;;;;;8.00;80.05;101253.59;1744040;82;20931;-77
2021/04/23 03:18:39;;;;;;;20.40;15.63;;;;;;;8.00;80.07;101248.36;1744021;82;21030;-77
2021/04/23 03:21:07;;;;;;;19.20;15.58;;;;;;;8.00;80.06;101250.13;1744070;82;21418;-77
2021/04/23 03:23:35;;;;;;;17.40;14.47;;;;;;;8.01;80.16;101247.94;1744013;82;21584;-76
2021/04/23 03:26:06;;;;;;;19.87;14.85;;;;;;;8.00;80.23;101250.13;1744135;82;21377;-76
2021/04/23 03:28:34;;;;;;;15.48;13.75;;;;;;;8.02;80.27;101247.01;1744098;82;21087;-77
2021/04/23 03:31:03;;;;;;;18.20;14.43;;;;;;;8.05;80.26;101258.20;1744125;82;21496;-77
2021/04/23 03:33:31;;;;;;;17.42;14.45;;;;;;;8.09;80.18;101258.91;1744136;82;21389;-77
2021/04/23 03:35:59;;;;;;;15.95;12.95;;;;;;;8.15;80.13;101256.53;1743935;82;20955;-77
2021/04/23 03:38:29;;;;;;;21.57;13.65;;;;;;;8.26;80.03;101262.17;1743985;81;21039;-76
2021/04/23 03:40:59;;;;;;;17.42;13.68;;;;;;;8.42;79.75;101259.82;1744091;82;21472;-76
2021/04/23 03:43:27;;;;;;;16.52;12.85;;;;;;;8.60;79.09;101253.83;1744115;81;21002;-76
2021/04/23 03:45:55;;;;;;;16.90;12.90;;;;;;;8.81;78.55;101253.40;1749139;80;21796;-76
2021/04/23 03:48:24;;;;;;;16.50;13.70;;;;;;;9.02;77.82;101264.70;1749875;80;21049;-76
2021/04/23 03:50:53;;;;;;;15.72;14.07;;;;;;;9.16;77.19;101258.02;1749814;82;20943;-76
2021/04/23 03:53:21;;;;;;;18.27;14.25;;;;;;;9.25;76.61;101257.61;1749797;82;21007;-76
2021/04/23 03:55:52;;;;;;;16.05;13.45;;;;;;;9.34;76.21;101246.75;1749832;82;20935;-75
2021/04/23 03:58:21;;;;;;;16.25;13.15;;;;;;;9.47;75.86;101250.52;1749828;80;21391;-76
2021/04/23 04:00:55;;;;;;;15.63;13.53;;;;;;;9.63;75.45;101250.66;1749893;80;21401;-76
2021/04/23 04:03:24;;;;;;;16.62;14.80;;;;;;;9.85;74.91;101247.03;1749956;82;21082;-76
2021/04/23 04:05:52;;;;;;;14.03;12.05;;;;;;;10.14;74.06;101251.76;1749916;82;20892;-75
2021/04/23 04:08:20;;;;;;;14.63;12.73;;;;;;;10.41;72.96;101246.59;1749936;80;20967;-75
2021/04/23 04:10:48;;;;;;;19.67;14.50;;;;;;;10.61;72.10;101244.30;1749879;81;21445;-78
2021/04/23 04:13:16;;;;;;;16.65;13.68;;;;;;;10.73;71.58;101243.66;1749755;82;20975;-75
2021/04/23 04:15:44;;;;;;;14.25;11.68;;;;;;;10.83;70.77;101249.28;1749819;82;20971;-78
2021/04/23 04:18:13;;;;;;;12.75;11.45;;;;;;;10.94;70.23;101250.45;1749858;82;20998;-77
2021/04/23 04:20:44;;;;;;;13.88;11.93;;;;;;;11.03;69.89;101252.19;1749849;82;21345;-77
2021/04/23 04:23:17;;;;;;;15.30;11.75;;;;;;;11.16;69.69;101254.56;1749843;82;21369;-77
2021/04/23 04:25:49;;;;;;;18.10;13.43;;;;;;;11.32;69.20;101260.73;1733296;82;20975;-78
2021/04/23 04:28:17;;;;;;;15.80;12.43;;;;;;;11.57;68.71;101255.00;1719994;83;20998;-76
2021/04/23 04:30:45;;;;;;;16.07;12.20;;;;;;;11.83;67.74;101252.75;1719934;83;21034;-75
2021/04/23 04:33:13;;;;;;;18.12;14.20;;;;;;;12.09;67.00;101250.47;1719978;83;20959;-77
2021/04/23 04:35:41;;;;;;;21.15;16.05;;;;;;;12.32;66.34;101251.34;1719988;83;21519;-81
2021/04/23 04:38:10;;;;;;;33.35;20.92;;;;;;;12.50;65.37;101256.01;1719944;82;20979;-81
2021/04/23 04:40:40;;;;;;;39.30;23.87;;;;;;;12.55;64.93;101249.16;1719979;83;21767;-79
2021/04/23 04:43:10;;;;;;;31.00;20.75;;;;;;;12.58;64.63;101243.70;1719899;83;21117;-80
2021/04/23 04:45:39;;;;;;;32.38;20.68;;;;;;;12.73;64.56;101249.39;1719951;82;20959;-79
2021/04/23 04:48:09;;;;;;;29.10;18.73;;;;;;;13.04;63.64;101248.89;1720127;82;22202;-81
2021/04/23 04:50:54;;;;;;;25.80;16.40;;;;;;;13.37;62.70;101242.55;1720038;83;21604;-80
2021/04/23 04:53:22;;;;;;;19.85;14.98;;;;;;;13.70;61.68;101246.18;1720137;83;20962;-80
2021/04/23 04:55:54;;;;;;;19.45;13.30;;;;;;;14.03;60.67;101245.82;1719984;83;21463;-81
2021/04/23 04:58:26;;;;;;;21.62;13.08;;;;;;;14.28;59.73;101249.50;1720060;83;20971;-82
2021/04/23 05:00:54;;;;;;;20.97;12.98;;;;;;;14.44;59.05;101247.53;1720045;83;21327;-81
2021/04/23 05:03:22;;;;;;;14.75;11.43;;;;;;;14.64;58.60;101246.72;1720213;83;20958;-81
2021/04/23 05:05:50;;;;;;;17.45;12.50;;;;;;;14.93;57.92;101248.22;1720138;82;20911;-77
2021/04/23 05:08:19;;;;;;;12.28;9.83;;;;;;;15.26;57.06;101252.62;1719935;82;20939;-77
2021/04/23 05:10:48;;;;;;;12.75;9.03;;;;;;;15.52;55.38;101248.16;1719956;83;21416;-79
2021/04/23 05:13:16;;;;;;;9.05;8.15;;;;;;;15.75;54.58;101248.70;1720003;83;21807;-78
2021/04/23 05:15:44;;;;;;;10.15;9.03;;;;;;;15.91;53.35;101262.98;1719947;83;21061;-77
2021/04/23 05:18:11;;;;;;;8.70;7.60;;;;;;;16.04;52.88;101259.45;1719990;82;21030;-77
2021/04/23 05:20:40;;;;;;;10.03;7.42;;;;;;;16.24;52.65;101253.55;1720001;83;21034;-77
2021/04/23 05:23:08;;;;;;;8.80;7.65;;;;;;;16.55;51.74;101250.78;1719974;83;21022;-74
2021/04/23 05:25:36;;;;;;;8.18;7.35;;;;;;;16.79;50.90;101248.58;1719847;83;21426;-76
2021/04/23 05:28:05;;;;;;;7.75;7.08;;;;;;;17.01;50.48;101245.61;1719892;83;20963;-76
2021/04/23 05:30:35;;;;;;;8.23;7.42;;;;;;;17.24;49.62;101246.50;1719989;82;21532;-77
2021/04/23 05:33:05;;;;;;;8.30;7.28;;;;;;;17.37;49.26;101244.08;1719939;83;21006;-76
2021/04/23 05:35:34;;;;;;;7.95;7.25;;;;;;;17.61;48.95;101235.99;1719816;83;21054;-77
2021/04/23 05:38:02;;;;;;;8.35;6.58;;;;;;;17.91;48.09;101234.52;1719931;83;20980;-77
2021/04/23 05:40:40;;;;;;;11.10;7.15;;;;;;;18.18;46.87;101226.59;1719851;82;21073;-74
2021/04/23 05:43:08;;;;;;;7.60;6.28;;;;;;;18.44;46.42;101217.79;1719999;83;20947;-76
2021/04/23 05:45:40;;;;;;;7.47;6.08;;;;;;;18.66;45.27;101217.31;1713072;82;20983;-76
2021/04/23 05:48:10;;;;;;;9.58;8.53;;;;;;;18.74;45.09;101209.05;1706321;82;20956;-78
2021/04/23 05:50:39;;;;;;;9.40;6.05;;;;;;;18.80;44.56;101208.54;1706399;82;21373;-77
2021/04/23 05:53:08;;;;;;;6.15;5.60;;;;;;;18.73;44.77;101212.67;1706172;84;21137;-75
2021/04/23 05:55:37;;;;;;;10.38;6.33;;;;;;;18.64;45.17;101215.62;1706353;82;21035;-75
2021/04/23 05:58:05;;;;;;;6.60;6.08;;;;;;;18.54;45.09;101213.40;1706306;84;20999;-76
2021/04/23 06:00:35;;;;;;;6.72;5.58;;;;;;;18.44;45.53;101213.80;1706396;84;21591;-73
2021/04/23 06:03:04;;;;;;;11.88;6.17;;;;;;;18.25;45.81;101213.16;1706465;84;22080;-74
2021/04/23 06:05:33;;;;;;;8.70;7.90;;;;;;;18.16;46.25;101211.27;1706279;83;20997;-74
2021/04/23 06:08:06;;;;;;;8.03;6.08;;;;;;;18.13;46.30;101212.37;1706389;83;20935;-75
2021/04/23 06:10:35;;;;;;;8.05;5.92;;;;;;;18.16;45.92;101218.77;1706232;83;21023;-75
2021/04/23 06:13:03;;;;;;;7.60;5.67;;;;;;;18.17;46.23;101218.28;1706357;84;21050;-75
2021/04/23 06:15:33;;;;;;;6.30;5.70;;;;;;;18.26;46.07;101215.34;1706390;84;22289;-74
2021/04/23 06:18:04;;;;;;;8.00;5.70;;;;;;;18.44;45.60;101220.44;1706249;84;20932;-76
2021/04/23 06:20:32;;;;;;;5.53;4.78;;;;;;;18.73;44.53;101215.33;1706679;83;21011;-77
2021/04/23 06:23:01;;;;;;;6.85;5.45;;;;;;;18.98;44.27;101215.91;1706459;84;21483;-76
2021/04/23 06:25:29;;;;;;;6.15;5.28;;;;;;;19.26;43.58;101201.91;1706469;82;20927;-75
2021/04/23 06:27:58;;;;;;;5.45;4.95;;;;;;;19.70;42.59;101206.11;1706474;84;21809;-74
2021/04/23 06:30:31;;;;;;;5.47;4.62;;;;;;;20.11;41.71;101211.70;1706284;84;21043;-75
2021/04/23 06:33:01;;;;;;;5.20;4.80;;;;;;;20.33;40.40;101214.58;1706645;83;21001;-74
2021/04/23 06:35:32;;;;;;;6.08;4.60;;;;;;;20.49;39.34;101209.51;1706452;82;22082;-76
2021/04/23 06:38:01;;;;;;;5.30;4.80;;;;;;;20.59;38.99;101204.72;1706369;82;21097;-76
2021/04/23 06:40:31;;;;;;;4.67;4.22;;;;;;;20.61;39.24;101204.91;1706351;83;21202;-76
2021/04/23 06:42:59;;;;;;;6.25;4.78;;;;;;;20.80;39.23;101205.84;1706278;84;20927;-76
2021/04/23 06:45:27;;;;;;;6.10;4.72;;;;;;;20.95;38.74;101198.23;1710121;83;21599;-78
2021/04/23 06:47:55;;;;;;;7.22;4.87;;;;;;;21.15;38.26;101199.84;1719926;82;20963;-75
2021/04/23 06:50:23;;;;;;;5.70;4.28;;;;;;;21.36;37.20;101188.08;1719875;82;20942;-77
2021/04/23 06:52:53;;;;;;;5.90;3.87;;;;;;;21.51;37.07;101191.96;1719824;83;21309;-76
2021/04/23 06:55:22;;;;;;;5.97;5.10;;;;;;;21.62;36.08;101186.92;1719643;82;20958;-77
2021/04/23 07:00:29;;;;;;;4.28;3.98;;;;;;;21.97;35.98;101194.13;1813509;79;22668;-74
2021/04/23 07:02:57;;;;;;;4.90;4.47;;;;;;;22.11;36.00;101193.57;1784177;80;21352;-75
2021/04/23 07:05:25;;;;;;;8.03;4.70;;;;;;;22.27;35.34;101192.90;1784138;79;21335;-75
2021/04/23 07:07:53;;;;;;;5.05;3.77;;;;;;;22.35;34.98;101184.95;1784057;80;20962;-75
2021/04/23 07:10:24;;;;;;;7.87;4.10;;;;;;;22.44;34.47;101192.55;1784111;80;21041;-77
2021/04/23 07:12:52;;;;;;;6.00;4.12;;;;;;;22.56;34.50;101193.95;1784087;79;21009;-76
2021/04/23 07:15:23;;;;;;;3.27;2.98;;;;;;;22.81;34.16;101186.59;1784119;80;21372;-73
2021/04/23 07:17:54;;;;;;;5.53;3.90;;;;;;;23.10;34.21;101180.45;1784081;80;21361;-75
2021/04/23 07:20:24;;;;;;;4.40;3.98;;;;;;;23.38;33.74;101189.58;1782051;80;21657;-76
2021/04/23 07:22:52;;;;;;;5.47;4.03;;;;;;;23.53;32.93;101183.11;1784183;79;21574;-75
2021/04/23 07:25:22;;;;;;;5.22;3.90;;;;;;;23.37;32.38;101187.41;1783967;79;20990;-74
2021/04/23 07:27:50;;;;;;;3.67;3.37;;;;;;;23.06;32.88;101201.83;1784072;80;20971;-74
2021/04/23 07:30:24;;;;;;;6.92;5.33;;;;;;;22.62;33.29;101197.02;1784115;80;21364;-76
2021/04/23 07:32:52;;;;;;;4.12;3.72;;;;;;;22.21;34.19;101192.17;1783988;80;20998;-75
2021/04/23 07:35:20;;;;;;;4.67;3.87;;;;;;;21.82;34.90;101191.12;1784067;79;20958;-74
2021/04/23 07:37:48;;;;;;;3.72;3.42;;;;;;;21.45;35.09;101185.38;1784045;80;20931;-73
2021/04/23 07:40:18;;;;;;;5.15;4.55;;;;;;;20.98;35.40;101190.77;1784061;80;20927;-76
2021/04/23 07:42:46;;;;;;;4.53;4.15;;;;;;;20.55;36.25;101205.45;1784165;80;22287;-77
2021/04/23 07:45:16;;;;;;;5.35;4.08;;;;;;;20.15;36.84;101187.81;1784020;80;20954;-72
2021/04/23 07:47:45;;;;;;;4.78;4.30;;;;;;;19.96;37.65;101183.81;1784077;80;21137;-73
2021/04/23 07:50:19;;;;;;;6.53;4.60;;;;;;;20.00;38.29;101175.41;1784059;79;20962;-72
2021/04/23 07:52:48;;;;;;;4.45;4.05;;;;;;;20.11;38.82;101179.75;1784093;80;20957;-72
2021/04/23 07:55:16;;;;;;;6.30;4.78;;;;;;;20.19;38.25;101177.23;1784200;79;22265;-72
2021/04/23 07:57:48;;;;;;;3.67;3.45;;;;;;;20.46;37.31;101175.67;1784172;80;21372;-72
2021/04/23 08:00:18;;;;;;;3.37;3.08;;;;;;;20.48;37.54;101173.20;1772699;79;20935;-73
2021/04/23 08:02:47;;;;;;;4.45;4.05;;;;;;;20.53;36.95;101177.27;1770734;81;21507;-72
2021/04/23 08:05:18;;;;;;;4.25;3.85;;;;;;;20.36;37.09;101172.16;1770616;80;21360;-72
2021/04/23 08:07:48;;;;;;;6.93;4.40;;;;;;;20.19;37.77;101178.57;1768317;80;21789;-71
2021/04/23 08:10:18;;;;;;;5.60;4.37;;;;;;;20.20;38.01;101171.41;1770315;81;21512;-71
2021/04/23 08:12:51;;;;;;;5.62;4.15;;;;;;;20.21;38.26;101165.95;1770107;81;21513;-71
2021/04/23 08:15:21;;;;;;;5.30;4.15;;;;;;;20.37;37.67;101163.20;1770015;80;21431;-71
2021/04/23 08:17:52;;;;;;;10.90;3.85;;;;;;;20.72;37.68;101169.73;1770057;81;20982;-72
2021/04/23 08:20:22;;;;;;;4.10;3.70;;;;;;;21.18;36.64;101154.19;1770011;80;21040;-71
2021/04/23 08:22:50;;;;;;;4.12;3.83;;;;;;;21.29;36.31;101153.98;1769973;81;21017;-71
2021/04/23 08:25:20;;;;;;;4.15;3.55;;;;;;;21.31;36.58;101144.51;1769962;81;21456;-71
2021/04/23 08:27:49;;;;;;;12.37;4.17;;;;;;;21.24;36.20;101154.94;1769992;81;20939;-73
2021/04/23 08:30:24;;;;;;;6.42;4.08;;;;;;;21.23;35.17;101147.94;1769867;81;21046;-72
2021/04/23 08:32:52;;;;;;;3.90;3.60;;;;;;;21.33;34.68;101151.87;1770209;80;21418;-71
2021/04/23 08:35:21;;;;;;;4.10;3.70;;;;;;;21.53;34.62;101152.63;1770062;81;20967;-72
2021/04/23 08:37:51;;;;;;;3.80;3.50;;;;;;;21.66;34.20;101141.59;1770021;81;21018;-70
2021/04/23 08:40:20;;;;;;;4.80;4.40;;;;;;;21.73;34.44;101135.98;1769919;81;21097;-73
2021/04/23 08:42:51;;;;;;;5.25;4.75;;;;;;;21.92;34.30;101142.50;1770021;80;20891;-74
2021/04/23 08:45:21;;;;;;;4.15;3.75;;;;;;;22.25;34.12;101135.27;1769957;81;21866;-74
2021/04/23 08:47:50;;;;;;;6.83;3.58;;;;;;;22.54;33.00;101133.16;1769962;81;20951;-73
2021/04/23 08:50:22;;;;;;;7.12;3.98;;;;;;;22.88;33.04;101128.81;1769990;81;21624;-72
2021/04/23 08:52:50;;;;;;;4.05;3.50;;;;;;;23.24;31.93;101127.31;1769802;81;21424;-72
2021/04/23 08:55:24;;;;;;;8.35;5.55;;;;;;;23.46;31.01;101124.53;1770120;81;20893;-71
2021/04/23 08:57:55;;;;;;;3.90;3.60;;;;;;;23.67;31.22;101117.36;1767520;79;21343;-72
2021/04/23 09:00:23;;;;;;;9.70;5.10;;;;;;;23.74;30.91;101123.72;1769905;80;21014;-72
2021/04/23 09:02:51;;;;;;;5.65;3.02;;;;;;;23.80;30.57;101116.39;1770045;81;21454;-72
2021/04/23 09:05:19;;;;;;;5.35;3.17;;;;;;;23.91;29.92;101116.06;1769893;81;20962;-72
2021/04/23 09:08:06;;;;;;;4.33;3.52;;;;;;;24.10;30.34;101116.24;1770108;81;20899;-72
2021/04/23 09:10:37;;;;;;;3.83;3.50;;;;;;;24.34;29.35;101111.33;1769929;81;21190;-72
2021/04/23 09:13:08;;;;;;;3.58;3.27;;;;;;;24.59;28.72;101116.19;1769909;81;20955;-75
2021/04/23 09:15:37;;;;;;;4.08;3.77;;;;;;;24.48;28.33;101105.83;1769980;81;20935;-71
2021/04/23 09:18:17;;;;;;;4.55;3.45;;;;;;;24.31;28.25;101105.49;1769769;81;21365;-75
2021/04/23 09:20:47;;;;;;;3.83;2.95;;;;;;;24.33;28.20;101108.84;1770017;79;20911;-72
2021/04/23 09:23:21;;;;;;;5.60;3.80;;;;;;;24.41;28.25;101106.98;1769856;81;21269;-71
2021/04/23 09:25:55;;;;;;;3.42;2.95;;;;;;;24.49;28.57;101100.78;1770035;80;21042;-72
2021/04/23 09:28:36;;;;;;;3.50;3.20;;;;;;;24.67;28.38;101089.83;1769848;80;20935;-71
2021/04/23 09:31:32;;;;;;;12.37;3.62;;;;;;;24.74;28.38;101085.44;1769923;80;20998;-71
2021/04/23 09:34:07;;;;;;;3.25;2.87;;;;;;;24.55;28.90;101082.67;1770002;80;21006;-71
2021/04/23 09:36:47;;;;;;;7.42;3.52;;;;;;;24.16;28.81;101090.08;1769976;80;21191;-71
2021/04/23 09:39:18;;;;;;;5.22;3.37;;;;;;;23.88;29.19;101099.48;1769280;80;21018;-71
2021/04/23 09:42:06;;;;;;;3.60;3.30;;;;;;;23.69;29.54;101084.05;1770054;81;21361;-73
2021/04/23 09:44:46;;;;;;;12.70;3.52;;;;;;;23.49;29.91;101088.88;1769853;81;20947;-73
2021/04/23 09:47:18;;;;;;;4.72;2.60;;;;;;;23.36;29.97;101075.14;1769738;81;21337;-72
2021/04/23 09:49:59;;;;;;;3.40;2.62;;;;;;;23.09;30.03;101077.59;1770102;81;22053;-71
2021/04/23 09:52:33;;;;;;;7.08;2.87;;;;;;;22.79;29.79;101071.78;1769907;80;20943;-72
2021/04/23 09:55:03;;;;;;;4.65;2.50;;;;;;;22.46;30.14;101071.61;1769466;80;21061;-73
2021/04/23 09:57:40;;;;;;;6.47;2.77;;;;;;;22.15;30.15;101069.38;1770184;79;21002;-71
2021/04/23 10:00:10;;;;;;;7.85;4.40;;;;;;;21.78;30.89;101072.77;1769264;79;20947;-72
2021/04/23 10:02:38;;;;;;;;;;;;;;;21.52;31.65;101068.20;1772577;81;21351;-71
2021/04/23 10:05:07;;;;;;;2.92;2.40;;;;;;;21.46;31.08;101065.66;1769891;79;20163;-71
2021/04/23 10:07:35;;;;;;;2.62;2.42;;;;;;;21.41;31.53;101058.61;1769935;81;21010;-72
2021/04/23 10:10:11;;;;;;;4.58;2.72;;;;;;;21.38;32.04;101057.53;1769817;81;20959;-71
2021/04/23 10:12:53;;;;;;;4.28;2.60;;;;;;;21.32;31.73;101051.46;1770011;81;21579;-72
2021/04/23 10:15:40;;;;;;;3.65;3.35;;;;;;;21.23;31.48;101054.56;1769904;81;21423;-72
2021/04/23 10:18:10;;;;;;;3.17;2.87;;;;;;;21.12;32.41;101044.08;1769926;79;21483;-71
2021/04/23 10:20:43;;;;;;;7.10;3.35;;;;;;;21.06;32.90;101040.20;1769963;81;21002;-73
2021/04/23 10:23:18;;;;;;;3.37;2.80;;;;;;;21.01;33.11;101036.30;1769954;79;21096;-73
2021/04/23 10:25:46;;;;;;;5.85;2.80;;;;;;;21.24;32.91;101036.23;1769983;81;20951;-74
2021/04/23 10:28:22;;;;;;;3.02;2.80;;;;;;;21.46;32.45;101024.30;1769911;81;21287;-75
2021/04/23 10:30:53;;;;;;;9.63;7.05;;;;;;;21.76;32.18;101028.87;1769721;81;20919;-73
2021/04/23 10:33:26;;;;;;;3.27;2.95;;;;;;;21.92;31.76;101017.46;1769927;81;21010;-74
2021/04/23 10:35:56;;;;;;;2.83;2.62;;;;;;;22.23;30.78;101003.66;1769950;81;21413;-73
2021/04/23 10:38:37;;;;;;;2.85;2.65;;;;;;;22.41;30.91;101015.14;1769930;81;20935;-75
2021/04/23 10:41:07;;;;;;;2.90;2.62;;;;;;;22.67;30.71;101010.22;1769894;81;21804;-75
2021/04/23 10:43:36;;;;;;;4.78;2.80;;;;;;;22.82;30.06;101006.44;1769845;81;20959;-72
2021/04/23 10:46:10;;;;;;;3.00;2.75;;;;;;;22.75;30.18;100995.55;1769919;80;20939;-72
2021/04/23 10:48:41;;;;;;;3.12;2.70;;;;;;;22.79;30.60;100991.55;1769891;79;20900;-75
2021/04/23 10:51:23;;;;;;;5.83;2.95;;;;;;;22.63;30.49;100996.83;1770000;81;21769;-74
2021/04/23 10:53:53;;;;;;;7.50;3.05;;;;;;;22.58;29.57;101006.67;1769898;79;21194;-73
2021/04/23 10:56:30;;;;;;;9.35;3.27;;;;;;;22.53;30.26;100987.11;1769861;81;20998;-72
2021/04/23 10:59:32;;;;;;;6.75;2.72;;;;;;;22.56;31.00;100981.43;1769873;80;21002;-72
2021/04/23 11:02:19;;;;;;;22.40;3.52;;;;;;;22.76;30.17;100987.34;1769865;81;20950;-72
2021/04/23 11:04:56;;;;;;;2.62;2.30;;;;;;;22.90;29.57;100979.21;1770020;81;21330;-72
2021/04/23 11:07:25;;;;;;;4.33;2.62;;;;;;;23.18;29.51;100973.59;1769825;79;21354;-73
2021/04/23 11:10:01;;;;;;;6.45;2.60;;;;;;;23.36;28.88;100976.94;1769865;79;20958;-72
2021/04/23 11:12:29;;;;;;;4.22;2.47;;;;;;;23.53;28.54;100966.24;1769934;81;21503;-73
2021/04/23 11:15:15;;;;;;;6.17;2.20;;;;;;;23.61;28.33;100977.44;1769794;81;20935;-72
2021/04/23 11:17:44;;;;;;;4.28;2.22;;;;;;;23.67;27.91;100975.43;1769878;81;20930;-73
2021/04/23 11:20:29;;;;;;;2.65;2.45;;;;;;;23.74;27.79;100969.72;1769879;81;21642;-77
2021/04/23 11:22:59;;;;;;;6.55;2.35;;;;;;;23.65;28.17;100960.86;1769941;79;20951;-74
2021/04/23 11:25:28;;;;;;;6.30;4.20;;;;;;;23.57;28.07;100976.45;1769909;81;20966;-72
2021/04/23 11:28:05;;;;;;;3.20;2.83;;;;;;;23.49;28.95;100968.41;1769869;80;20939;-74
2021/04/23 11:31:01;;;;;;;2.80;2.60;;;;;;;23.54;28.58;100968.77;1769875;81;21166;-72
2021/04/23 11:33:49;;;;;;;4.65;2.17;;;;;;;23.42;28.05;100955.87;1769327;80;21454;-72
2021/04/23 11:36:34;;;;;;;2.80;2.33;;;;;;;23.00;28.95;100967.05;1769863;81;21037;-71
2021/04/23 11:39:07;;;;;;;7.40;3.00;;;;;;;22.80;30.36;100953.61;1769280;81;21018;-74
2021/04/23 11:41:37;;;;;;;4.33;3.15;;;;;;;22.64;31.34;100951.23;1769870;81;20974;-70